Time;durP1;ratioP1;P1;durP2;ratioP2;P2;SDS_P1;SDS_P2;PMS_P1;PMS_P2;Temp;Humidity;BMP_temperature;BMP_pressure;BME280_temperature;BME280_humidity;BME280_pressure;Samples;Min_cycle;Max_cycle;Signal;HPM_P1;HPM_P2
2022/01/04 00:00:47;;;;;;;0.73;0.60;;;21.30;56.50;;;;;;4988225;28;20214;-74
2022/01/04 00:03:13;;;;;;;0.80;0.80;;;21.10;56.40;;;;;;4983333;28;20175;-74
2022/01/04 00:05:39;;;;;;;0.60;0.50;;;21.20;56.50;;;;;;4969703;28;20479;-75
2022/01/04 00:08:08;;;;;;;0.60;0.60;;;21.10;56.40;;;;;;4970412;28;20406;-74
2022/01/04 00:10:35;;;;;;;1.43;0.60;;;21.10;56.40;;;;;;4970228;28;20316;-74
2022/01/04 00:15:45;;;;;;;0.60;0.50;;;21.10;56.80;;;;;;4970336;28;20425;-74
2022/01/04 00:18:11;;;;;;;0.50;0.40;;;21.10;56.50;;;;;;4968420;28;20537;-74
2022/01/04 00:20:37;;;;;;;0.80;0.70;;;21.10;56.50;;;;;;4970092;28;20269;-74
2022/01/04 00:23:03;;;;;;;0.70;0.63;;;21.10;56.60;;;;;;4969925;28;21005;-74
2022/01/04 00:25:29;;;;;;;0.60;0.50;;;21.10;56.50;;;;;;4968725;28;20182;-75
2022/01/04 00:27:55;;;;;;;0.77;0.77;;;21.20;56.60;;;;;;4970074;28;20450;-74
2022/01/04 00:30:20;;;;;;;0.50;0.50;;;21.10;56.50;;;;;;4969986;28;20198;-74
2022/01/04 00:32:46;;;;;;;0.50;0.50;;;21.10;56.50;;;;;;4970177;28;20304;-74
2022/01/04 00:35:12;;;;;;;1.77;0.60;;;21.10;56.60;;;;;;4968813;28;20183;-74
2022/01/04 00:37:38;;;;;;;1.13;0.60;;;21.10;56.50;;;;;;4970002;28;20193;-74
2022/01/04 00:40:04;;;;;;;0.67;0.50;;;21.10;56.50;;;;;;4969968;28;20590;-74
2022/01/04 00:42:30;;;;;;;1.60;0.40;;;21.00;56.50;;;;;;4969961;28;20222;-74
2022/01/04 00:44:55;;;;;;;0.73;0.53;;;21.00;56.50;;;;;;4969637;28;20818;-74
2022/01/04 00:47:27;;;;;;;0.60;0.50;;;21.20;56.60;;;;;;4969530;28;20186;-74
2022/01/04 00:49:53;;;;;;;0.60;0.60;;;21.00;56.50;;;;;;4969365;28;20199;-74
2022/01/04 00:52:18;;;;;;;0.50;0.40;;;21.00;56.50;;;;;;4969866;28;20778;-74
2022/01/04 00:54:45;;;;;;;0.80;0.80;;;20.80;56.40;;;;;;4970024;28;20205;-74
2022/01/04 00:57:11;;;;;;;0.57;0.57;;;21.00;56.50;;;;;;4969863;28;20175;-74
2022/01/04 00:59:39;;;;;;;0.67;0.50;;;21.20;56.60;;;;;;4977989;28;20518;-74
2022/01/04 01:02:05;;;;;;;0.50;0.50;;;21.00;56.60;;;;;;4989141;28;20170;-74
2022/01/04 01:04:30;;;;;;;0.70;0.70;;;21.00;56.60;;;;;;4973454;28;20516;-74
2022/01/04 01:06:56;;;;;;;0.73;0.73;;;21.20;56.60;;;;;;4969721;28;20175;-74
2022/01/04 01:09:25;;;;;;;0.80;0.80;;;21.00;67.90;;;;;;4969720;28;20183;-74
2022/01/04 01:11:51;;;;;;;1.40;0.60;;;21.00;56.60;;;;;;4969646;28;20207;-74
2022/01/04 01:14:16;;;;;;;0.60;0.60;;;21.00;56.60;;;;;;4969572;28;20886;-74
2022/01/04 01:16:42;;;;;;;0.50;0.50;;;21.00;56.60;;;;;;4971843;28;20213;-74
2022/01/04 01:19:07;;;;;;;0.50;0.50;;;21.00;63.30;;;;;;4973089;28;20179;-74
2022/01/04 01:21:33;;;;;;;0.50;0.50;;;21.00;56.60;;;;;;4973201;28;20213;-74
2022/01/04 01:23:59;;;;;;;0.50;0.50;;;21.00;56.60;;;;;;4973223;28;20171;-74
2022/01/04 01:26:24;;;;;;;0.60;0.60;;;21.00;56.60;;;;;;4973148;28;20179;-74
2022/01/04 01:28:50;;;;;;;0.60;0.60;;;21.00;56.60;;;;;;4972948;28;20341;-74
2022/01/04 01:31:16;;;;;;;1.37;0.80;;;21.50;56.80;;;;;;4972843;28;20336;-74
2022/01/04 01:33:42;;;;;;;2.30;0.50;;;21.00;56.70;;;;;;4973128;28;20193;-74
2022/01/04 01:36:07;;;;;;;0.73;0.50;;;21.10;56.70;;;;;;4972737;28;20477;-74
2022/01/04 01:38:33;;;;;;;0.63;0.63;;;21.00;56.60;;;;;;4972943;28;20190;-74
2022/01/04 01:40:59;;;;;;;0.90;0.60;;;21.00;56.70;;;;;;4972536;28;20217;-74
2022/01/04 01:43:28;;;;;;;1.00;0.50;;;21.00;56.70;;;;;;4972179;28;20189;-74
2022/01/04 01:45:55;;;;;;;3.37;0.50;;;21.00;56.70;;;;;;4972623;28;20202;-74
2022/01/04 01:48:20;;;;;;;0.80;0.50;;;20.40;56.40;;;;;;4972474;28;20481;-74
2022/01/04 01:50:46;;;;;;;0.63;0.63;;;21.10;56.80;;;;;;4972007;28;20449;-75
2022/01/04 01:53:12;;;;;;;0.90;0.50;;;;;;;;;;4972016;28;20206;-74
2022/01/04 01:55:38;;;;;;;0.97;0.70;;;21.00;56.20;;;;;;4972314;28;20470;-75
2022/01/04 01:58:05;;;;;;;0.57;0.57;;;21.00;57.30;;;;;;4971928;28;20437;-74
2022/01/04 02:00:31;;;;;;;0.60;0.50;;;21.00;57.30;;;;;;4988259;28;20240;-75
2022/01/04 02:02:57;;;;;;;0.80;0.60;;;21.10;56.80;;;;;;4989961;28;20405;-75
2022/01/04 02:05:23;;;;;;;0.50;0.50;;;20.90;56.70;;;;;;4972372;28;20167;-75
2022/01/04 02:07:49;;;;;;;1.43;0.70;;;20.90;56.70;;;;;;4970501;28;20418;-75
2022/01/04 02:10:15;;;;;;;0.50;0.50;;;21.00;56.80;;;;;;4972351;28;20521;-74
2022/01/04 02:12:46;;;;;;;0.50;0.50;;;20.90;56.70;;;;;;4971811;28;20924;-74
2022/01/04 02:15:20;;;;;;;0.77;0.77;;;20.90;56.70;;;;;;4972194;28;20178;-74
2022/01/04 02:17:45;;;;;;;0.60;0.57;;;20.90;56.70;;;;;;4971776;28;20478;-75
2022/01/04 02:20:12;;;;;;;0.80;0.57;;;21.00;56.80;;;;;;4971921;28;20458;-74
2022/01/04 02:22:38;;;;;;;0.50;0.50;;;20.90;56.70;;;;;;4972174;28;20186;-74
2022/01/04 02:25:05;;;;;;;0.60;0.60;;;20.90;56.70;;;;;;4971929;28;20406;-74
2022/01/04 02:27:35;;;;;;;0.50;0.50;;;20.90;56.70;;;;;;4971241;28;20638;-74
2022/01/04 02:30:02;;;;;;;0.70;0.70;;;20.60;67.40;;;;;;4971818;28;20956;-74
2022/01/04 02:32:28;;;;;;;0.50;0.50;;;20.90;56.70;;;;;;4971583;28;20529;-74
2022/01/04 02:34:53;;;;;;;0.60;0.50;;;21.20;56.90;;;;;;4972233;28;20417;-74
2022/01/04 02:37:21;;;;;;;0.60;0.57;;;20.90;56.70;;;;;;4971791;28;20225;-74
2022/01/04 02:39:47;;;;;;;0.70;0.50;;;20.90;56.70;;;;;;4971696;28;20316;-75
2022/01/04 02:42:12;;;;;;;0.87;0.40;;;20.90;56.70;;;;;;4969950;28;20426;-74
2022/01/04 02:44:38;;;;;;;0.87;0.60;;;20.90;56.70;;;;;;4971726;28;20575;-74
2022/01/04 02:47:04;;;;;;;0.70;0.70;;;20.90;56.70;;;;;;4971499;28;20174;-74
2022/01/04 02:49:29;;;;;;;0.50;0.50;;;21.00;56.70;;;;;;4971118;28;20209;-74
2022/01/04 02:51:55;;;;;;;0.57;0.57;;;20.90;56.70;;;;;;4971583;28;20281;-74
2022/01/04 02:54:20;;;;;;;0.70;0.70;;;20.90;56.80;;;;;;4971296;28;20637;-74
2022/01/04 02:56:46;;;;;;;1.43;0.50;;;20.90;56.70;;;;;;4971408;28;20205;-74
2022/01/04 02:59:12;;;;;;;0.73;0.70;;;20.60;63.10;;;;;;4974722;28;20228;-74
2022/01/04 03:01:37;;;;;;;0.60;0.60;;;21.10;56.90;;;;;;4971784;28;20257;-74
2022/01/04 03:04:03;;;;;;;1.27;0.60;;;20.90;56.70;;;;;;4971731;28;20483;-74
2022/01/04 03:06:28;;;;;;;0.70;0.60;;;21.40;57.00;;;;;;4971412;28;20170;-75
2022/01/04 03:08:54;;;;;;;0.70;0.60;;;21.10;56.90;;;;;;4971420;28;20174;-74
2022/01/04 03:11:20;;;;;;;0.70;0.70;;;20.90;56.80;;;;;;4970828;28;20293;-74
2022/01/04 03:13:45;;;;;;;0.50;0.50;;;21.00;56.90;;;;;;4971265;28;20273;-74
2022/01/04 03:16:11;;;;;;;1.13;0.60;;;21.00;56.80;;;;;;4971267;28;20179;-75
2022/01/04 03:18:48;;;;;;;1.33;0.53;;;20.90;56.80;;;;;;4970149;28;20236;-75
2022/01/04 03:21:14;;;;;;;0.70;0.70;;;20.90;56.80;;;;;;4970977;28;20756;-75
2022/01/04 03:23:40;;;;;;;0.83;0.70;;;20.90;56.90;;;;;;4971056;28;20500;-74
2022/01/04 03:26:05;;;;;;;0.87;0.43;;;21.00;56.90;;;;;;4970648;28;20198;-74
2022/01/04 03:28:31;;;;;;;0.60;0.50;;;21.00;57.00;;;;;;4970832;28;20186;-74
2022/01/04 03:30:56;;;;;;;2.83;0.70;;;20.90;56.80;;;;;;4970650;28;20278;-74
2022/01/04 03:33:22;;;;;;;0.93;0.50;;;20.80;56.80;;;;;;4969479;28;20663;-74
2022/01/04 03:35:47;;;;;;;2.80;0.80;;;20.90;56.80;;;;;;4970703;28;20565;-74
2022/01/04 03:38:13;;;;;;;0.60;0.60;;;20.90;56.80;;;;;;4970607;28;20195;-74
2022/01/04 03:40:38;;;;;;;0.60;0.60;;;21.10;56.90;;;;;;4970340;28;20246;-74
2022/01/04 03:43:04;;;;;;;0.50;0.50;;;20.90;56.80;;;;;;4970683;28;20225;-74
2022/01/04 03:45:30;;;;;;;0.60;0.60;;;20.90;56.90;;;;;;4970724;28;20179;-74
2022/01/04 03:47:55;;;;;;;1.00;0.70;;;20.90;56.80;;;;;;4970528;28;20175;-74
2022/01/04 03:50:21;;;;;;;0.60;0.57;;;20.90;56.80;;;;;;4969669;28;20207;-74
2022/01/04 03:52:46;;;;;;;0.60;0.60;;;20.90;56.80;;;;;;4970103;28;20271;-74
2022/01/04 03:55:12;;;;;;;0.80;0.50;;;20.90;56.80;;;;;;4970449;28;20200;-74
2022/01/04 03:57:38;;;;;;;1.70;0.60;;;20.90;56.80;;;;;;4969968;28;20194;-74
2022/01/04 04:00:06;;;;;;;0.60;0.60;;;21.10;56.90;;;;;;4973295;28;20713;-74
2022/01/04 04:02:32;;;;;;;0.60;0.60;;;20.90;56.80;;;;;;4970255;28;20175;-74
2022/01/04 04:04:57;;;;;;;0.57;0.50;;;20.90;56.80;;;;;;4970347;28;20541;-74
2022/01/04 04:07:23;;;;;;;0.97;0.50;;;20.80;67.70;;;;;;4970197;28;20174;-74
2022/01/04 04:09:48;;;;;;;0.60;0.50;;;20.90;56.70;;;;;;4969947;28;20221;-74
2022/01/04 04:12:14;;;;;;;0.70;0.63;;;20.90;56.70;;;;;;4970148;28;20204;-74
2022/01/04 04:14:40;;;;;;;2.20;0.63;;;21.20;56.90;;;;;;4970145;28;20282;-74
2022/01/04 04:17:06;;;;;;;0.60;0.50;;;20.90;56.70;;;;;;4969070;28;20179;-75
2022/01/04 04:19:32;;;;;;;1.23;0.70;;;21.20;56.80;;;;;;4966928;28;20958;-74
2022/01/04 04:21:57;;;;;;;0.60;0.50;;;20.90;56.60;;;;;;4966685;28;20178;-74
2022/01/04 04:24:23;;;;;;;0.73;0.60;;;20.70;56.50;;;;;;4969903;28;20178;-74
2022/01/04 04:26:48;;;;;;;0.50;0.47;;;20.90;56.60;;;;;;4966321;28;20265;-74
2022/01/04 04:29:14;;;;;;;0.70;0.70;;;21.10;63.30;;;;;;4969721;28;20183;-75
2022/01/04 04:31:39;;;;;;;0.60;0.60;;;21.10;57.00;;;;;;4969753;28;20191;-74
2022/01/04 04:34:05;;;;;;;0.73;0.73;;;20.90;56.60;;;;;;4969842;28;20177;-74
2022/01/04 04:36:31;;;;;;;0.90;0.80;;;20.90;56.60;;;;;;4969796;28;20209;-74
2022/01/04 04:38:56;;;;;;;0.60;0.60;;;20.90;56.60;;;;;;4969703;28;20797;-74
2022/01/04 04:41:22;;;;;;;0.87;0.80;;;20.70;56.50;;;;;;4968181;28;20340;-75
2022/01/04 04:43:53;;;;;;;0.60;0.60;;;21.00;57.20;;;;;;4970217;28;20178;-74
2022/01/04 04:46:18;;;;;;;0.90;0.60;;;20.90;56.50;;;;;;4970342;28;20316;-74
2022/01/04 04:48:44;;;;;;;0.70;0.50;;;20.90;56.60;;;;;;4970296;28;20964;-75
2022/01/04 04:51:09;;;;;;;0.60;0.60;;;20.90;56.60;;;;;;4970612;28;20636;-74
2022/01/04 04:53:35;;;;;;;0.70;0.60;;;20.80;56.50;;;;;;4973240;28;20570;-74
2022/01/04 04:56:01;;;;;;;0.67;0.50;;;21.10;56.60;;;;;;4974718;28;20269;-74
2022/01/04 04:58:26;;;;;;;0.70;0.70;;;20.80;56.40;;;;;;4974073;28;20178;-74
2022/01/04 05:00:52;;;;;;;0.60;0.60;;;21.10;56.60;;;;;;4985281;28;20312;-74
2022/01/04 05:03:17;;;;;;;1.13;0.70;;;20.80;56.40;;;;;;4974223;28;20187;-74
2022/01/04 05:05:43;;;;;;;0.63;0.63;;;21.00;56.50;;;;;;4974012;28;20292;-75
2022/01/04 05:08:08;;;;;;;0.83;0.80;;;20.60;56.30;;;;;;4974400;28;20163;-74
2022/01/04 05:10:34;;;;;;;0.60;0.60;;;20.70;56.40;;;;;;4973699;28;20284;-74
2022/01/04 05:12:59;;;;;;;0.60;0.60;;;20.60;56.40;;;;;;4973862;28;20182;-74
2022/01/04 05:15:25;;;;;;;1.00;0.90;;;21.10;56.60;;;;;;4975476;28;20179;-73
2022/01/04 05:17:50;;;;;;;0.70;0.70;;;20.70;56.40;;;;;;4973961;28;20182;-72
2022/01/04 05:20:16;;;;;;;1.63;0.60;;;20.70;56.30;;;;;;4972627;28;20241;-75
2022/01/04 05:22:42;;;;;;;0.83;0.67;;;20.60;56.20;;;;;;4972841;28;20183;-74
2022/01/04 05:25:09;;;;;;;0.50;0.50;;;20.60;56.30;;;;;;4972269;28;20297;-74
2022/01/04 05:27:34;;;;;;;1.67;0.63;;;20.60;56.30;;;;;;4973479;28;20178;-75
2022/01/04 05:30:00;;;;;;;1.10;0.80;;;20.60;56.40;;;;;;4973041;28;20476;-74
2022/01/04 05:32:25;;;;;;;0.90;0.70;;;20.60;56.50;;;;;;4973018;28;20339;-74
2022/01/04 05:34:51;;;;;;;8.10;1.40;;;20.70;56.50;;;;;;4972516;28;20285;-74
2022/01/04 05:37:17;;;;;;;0.93;0.93;;;20.60;56.60;;;;;;4973284;28;20248;-75
2022/01/04 05:39:42;;;;;;;1.63;0.90;;;21.00;57.40;;;;;;4974171;28;20241;-74
2022/01/04 05:42:08;;;;;;;2.40;1.40;;;20.50;56.60;;;;;;4973101;28;20209;-75
2022/01/04 05:44:35;;;;;;;2.20;1.17;;;20.60;56.60;;;;;;4990257;28;20668;-74
2022/01/04 05:47:01;;;;;;;3.33;1.10;;;20.60;56.70;;;;;;4984858;28;20561;-74
2022/01/04 05:49:26;;;;;;;3.80;1.37;;;20.50;68.50;;;;;;4992002;28;20532;-74
2022/01/04 05:51:52;;;;;;;3.90;1.27;;;20.70;56.80;;;;;;4992248;28;20184;-74
2022/01/04 05:54:17;;;;;;;8.90;1.67;;;20.80;56.80;;;;;;4991888;28;20312;-74
2022/01/04 05:56:43;;;;;;;3.50;1.50;;;20.60;56.70;;;;;;4984813;28;20194;-74
2022/01/04 05:59:08;;;;;;;5.03;1.57;;;20.30;63.40;;;;;;4986874;28;20206;-74
2022/01/04 06:01:34;;;;;;;2.00;1.30;;;20.60;56.70;;;;;;4972031;28;20207;-74
2022/01/04 06:03:59;;;;;;;3.30;1.43;;;19.60;56.20;;;;;;4971429;28;20178;-74
2022/01/04 06:06:25;;;;;;;2.87;1.50;;;20.70;56.80;;;;;;4970954;28;20175;-74
2022/01/04 06:08:51;;;;;;;3.03;1.33;;;21.00;57.00;;;;;;4972201;28;20265;-75
2022/01/04 06:11:54;;;;;;;5.53;1.50;;;20.70;56.80;;;;;;4972228;28;20566;-74
2022/01/04 06:17:03;;;;;;;2.20;1.67;;;20.70;56.80;;;;;;4991772;28;20463;-74
2022/01/04 06:19:29;;;;;;;2.00;1.60;;;20.70;56.70;;;;;;4991506;28;20467;-74
2022/01/04 06:21:54;;;;;;;1.83;1.60;;;20.70;56.80;;;;;;4991460;28;20460;-74
2022/01/04 06:24:20;;;;;;;6.67;1.50;;;21.00;56.90;;;;;;4991410;28;20184;-74
2022/01/04 06:26:45;;;;;;;4.27;1.43;;;20.70;56.70;;;;;;4990118;28;20182;-74
2022/01/04 06:29:11;;;;;;;1.53;1.37;;;20.70;67.60;;;;;;4991347;28;20249;-74
2022/01/04 06:31:41;;;;;;;1.97;1.83;;;20.70;56.70;;;;;;4991354;28;20684;-74
2022/01/04 06:34:07;;;;;;;3.03;1.30;;;21.70;57.30;;;;;;4991305;28;20417;-74
2022/01/04 06:36:32;;;;;;;1.63;1.33;;;20.70;56.60;;;;;;4975161;28;20646;-74
2022/01/04 06:38:58;;;;;;;2.57;1.47;;;20.80;56.70;;;;;;4971603;28;20647;-74
2022/01/04 06:41:23;;;;;;;1.53;1.43;;;20.70;56.70;;;;;;4966617;28;20214;-74
2022/01/04 06:43:49;;;;;;;1.47;1.03;;;20.70;56.70;;;;;;4976807;28;20179;-74
2022/01/04 06:46:15;;;;;;;4.57;1.10;;;20.70;56.70;;;;;;4972521;28;20191;-74
2022/01/04 06:48:41;;;;;;;3.67;1.27;;;20.70;56.70;;;;;;4972192;28;20275;-74
2022/01/04 06:51:08;;;;;;;2.60;1.80;;;20.80;56.70;;;;;;4981724;28;20218;-74
2022/01/04 06:53:34;;;;;;;4.20;1.77;;;20.70;56.70;;;;;;4971207;28;20434;-74
2022/01/04 06:55:59;;;;;;;1.53;1.20;;;20.70;56.70;;;;;;4971879;28;20517;-74
2022/01/04 06:58:25;;;;;;;2.83;1.20;;;20.60;56.60;;;;;;4971531;28;20607;-75
2022/01/04 07:00:50;;;;;;;1.70;1.57;;;20.40;56.60;;;;;;4989769;28;20213;-74
2022/01/04 07:03:16;;;;;;;7.20;1.43;;;20.70;56.70;;;;;;4990903;28;20613;-74
2022/01/04 07:05:42;;;;;;;4.87;1.50;;;20.70;56.70;;;;;;4989374;28;20691;-74
2022/01/04 07:08:07;;;;;;;1.87;0.97;;;20.70;56.70;;;;;;4990660;28;20174;-74
2022/01/04 07:10:33;;;;;;;1.30;1.20;;;20.70;56.70;;;;;;4990451;28;20194;-74
2022/01/04 07:12:58;;;;;;;2.10;1.07;;;20.70;56.70;;;;;;4990747;28;20174;-74
2022/01/04 07:15:24;;;;;;;6.13;1.33;;;20.70;56.70;;;;;;4990474;28;20649;-74
2022/01/04 07:17:49;;;;;;;1.37;1.27;;;20.10;56.40;;;;;;4990531;28;20182;-74
2022/01/04 07:20:15;;;;;;;2.83;1.77;;;20.70;56.80;;;;;;4990247;28;20626;-74
2022/01/04 07:22:41;;;;;;;4.50;1.17;;;20.70;56.70;;;;;;4990418;28;20253;-74
2022/01/04 07:25:07;;;;;;;0.87;0.87;;;20.70;56.70;;;;;;4990516;28;20634;-74
2022/01/04 07:27:33;;;;;;;0.80;0.80;;;20.70;56.60;;;;;;4990296;28;20336;-74
2022/01/04 07:29:59;;;;;;;6.67;2.20;;;20.80;56.70;;;;;;4978933;28;20532;-74
2022/01/04 07:32:25;;;;;;;2.20;1.17;;;20.70;56.70;;;;;;4970721;28;20649;-74
2022/01/04 07:34:51;;;;;;;1.20;1.10;;;20.70;57.30;;;;;;4967053;28;20426;-74
2022/01/04 07:37:16;;;;;;;1.83;1.03;;;21.00;56.80;;;;;;4970680;28;20476;-74
2022/01/04 07:39:42;;;;;;;2.00;0.70;;;20.70;56.70;;;;;;4970498;28;20226;-74
2022/01/04 07:42:08;;;;;;;1.10;0.77;;;20.60;56.60;;;;;;4970652;28;20507;-74
2022/01/04 07:44:34;;;;;;;6.00;1.70;;;21.00;56.80;;;;;;4970623;28;20174;-74
2022/01/04 07:47:00;;;;;;;4.40;1.37;;;20.70;56.60;;;;;;4970593;28;20413;-74
2022/01/04 07:49:26;;;;;;;1.27;1.10;;;20.70;67.00;;;;;;4970201;28;20994;-74
2022/01/04 07:51:53;;;;;;;1.37;1.20;;;20.70;56.70;;;;;;4970380;28;20433;-74
2022/01/04 07:54:18;;;;;;;1.20;1.03;;;20.70;56.60;;;;;;4970395;28;20288;-74
2022/01/04 07:56:44;;;;;;;3.30;1.10;;;20.70;56.60;;;;;;4970858;28;20413;-74
2022/01/04 07:59:10;;;;;;;1.63;1.40;;;20.80;63.40;;;;;;4975820;28;20189;-74
2022/01/04 08:01:35;;;;;;;1.40;1.30;;;20.70;56.60;;;;;;4989928;28;20323;-74
2022/01/04 08:04:01;;;;;;;3.17;1.67;;;20.80;56.70;;;;;;4989840;28;20178;-74
2022/01/04 08:06:27;;;;;;;1.57;0.90;;;20.70;56.60;;;;;;4989746;28;20186;-74
2022/01/04 08:08:53;;;;;;;2.23;1.40;;;20.70;56.60;;;;;;4989527;28;20213;-74
2022/01/04 08:11:20;;;;;;;3.53;1.23;;;20.70;56.60;;;;;;4988064;28;20635;-74
2022/01/04 08:13:46;;;;;;;2.50;0.77;;;20.70;56.60;;;;;;4989621;28;20192;-74
2022/01/04 08:16:14;;;;;;;1.10;1.00;;;20.90;56.70;;;;;;4989578;28;20778;-74
2022/01/04 08:18:40;;;;;;;4.80;1.10;;;20.70;56.60;;;;;;4989558;28;20201;-74
2022/01/04 08:21:07;;;;;;;0.90;0.90;;;20.70;56.60;;;;;;4989619;28;20472;-74
2022/01/04 08:23:32;;;;;;;1.23;1.13;;;20.70;56.60;;;;;;4989642;28;20483;-74
2022/01/04 08:25:58;;;;;;;3.10;1.07;;;20.70;56.60;;;;;;4989175;28;20405;-74
2022/01/04 08:28:24;;;;;;;1.33;1.23;;;20.80;56.80;;;;;;4989898;28;20174;-74
2022/01/04 08:30:49;;;;;;;1.27;0.60;;;20.60;56.60;;;;;;4989691;28;20237;-74
2022/01/04 08:33:15;;;;;;;2.23;1.17;;;20.80;56.70;;;;;;4989550;28;20181;-75
2022/01/04 08:35:41;;;;;;;1.73;1.07;;;20.70;56.60;;;;;;4989592;28;20182;-74
2022/01/04 08:38:07;;;;;;;2.10;1.20;;;20.90;56.70;;;;;;4989316;28;20186;-74
2022/01/04 08:40:33;;;;;;;1.13;1.00;;;21.00;56.80;;;;;;4989384;28;20609;-74
2022/01/04 08:42:59;;;;;;;0.93;0.93;;;20.70;56.60;;;;;;4989493;28;20544;-74
2022/01/04 08:45:25;;;;;;;2.10;1.00;;;20.70;56.60;;;;;;4989492;28;20417;-74
2022/01/04 08:47:54;;;;;;;1.00;0.80;;;20.70;56.60;;;;;;4989420;28;20178;-74
2022/01/04 08:50:20;;;;;;;1.73;0.90;;;21.00;56.80;;;;;;4987024;28;20433;-74
2022/01/04 08:52:46;;;;;;;1.30;1.20;;;20.70;56.60;;;;;;4969904;28;20571;-74
2022/01/04 08:55:12;;;;;;;1.63;1.00;;;20.80;56.70;;;;;;4970124;28;20505;-74
2022/01/04 08:57:38;;;;;;;1.60;1.20;;;20.90;56.80;;;;;;4970135;28;20257;-74
2022/01/04 09:00:06;;;;;;;1.10;1.00;;;20.70;56.70;;;;;;4981964;28;20967;-74
2022/01/04 09:02:33;;;;;;;0.90;0.90;;;20.70;56.70;;;;;;4989435;28;20416;-74
2022/01/04 09:04:59;;;;;;;0.80;0.67;;;20.70;56.60;;;;;;4989485;28;20421;-74
2022/01/04 09:07:25;;;;;;;1.17;1.07;;;20.70;56.70;;;;;;4989309;28;20697;-74
2022/01/04 09:09:51;;;;;;;1.20;1.00;;;20.90;56.80;;;;;;4987879;28;20436;-74
2022/01/04 09:12:18;;;;;;;0.93;0.93;;;20.90;56.70;;;;;;4989238;28;20186;-74
2022/01/04 09:14:57;;;;;;;0.90;0.90;;;20.70;56.70;;;;;;4989159;28;20292;-74
2022/01/04 09:20:11;;;;;;;1.03;0.60;;;20.70;56.70;;;;;;4989215;28;20490;-74
2022/01/04 09:22:37;;;;;;;2.90;0.87;;;20.70;56.60;;;;;;4989207;28;20545;-74
2022/01/04 09:25:03;;;;;;;2.60;0.97;;;20.70;56.70;;;;;;4989116;28;20417;-74
2022/01/04 09:27:29;;;;;;;0.80;0.80;;;20.70;56.70;;;;;;4989292;28;20178;-74
2022/01/04 09:29:55;;;;;;;0.87;0.87;;;20.70;56.60;;;;;;4989230;28;20429;-74
2022/01/04 09:32:21;;;;;;;1.37;1.13;;;20.70;56.70;;;;;;4989122;28;20554;-74
2022/01/04 09:34:47;;;;;;;0.80;0.80;;;20.70;56.70;;;;;;4989011;28;20420;-74
2022/01/04 09:37:13;;;;;;;1.43;1.00;;;20.90;56.70;;;;;;4990704;28;20456;-74
2022/01/04 09:39:39;;;;;;;1.63;0.70;;;20.20;56.40;;;;;;4992300;28;20201;-74
2022/01/04 09:42:08;;;;;;;0.80;0.80;;;20.60;56.60;;;;;;4992442;28;20942;-74
2022/01/04 09:44:34;;;;;;;1.90;1.03;;;20.70;56.70;;;;;;4992407;28;20178;-74
2022/01/04 09:47:02;;;;;;;1.00;1.00;;;20.70;56.70;;;;;;4992374;28;20412;-74
2022/01/04 09:49:29;;;;;;;0.83;0.83;;;20.40;67.90;;;;;;4992236;28;20413;-74
2022/01/04 09:51:56;;;;;;;2.57;1.00;;;20.50;56.60;;;;;;4976810;28;20483;-74
2022/01/04 09:54:26;;;;;;;1.10;1.10;;;20.60;56.70;;;;;;4972717;28;20434;-74
2022/01/04 09:56:53;;;;;;;1.10;1.00;;;20.60;56.70;;;;;;4972971;28;20489;-74
2022/01/04 09:59:19;;;;;;;1.23;1.13;;;20.60;67.60;;;;;;4978724;28;20468;-74
2022/01/04 10:01:55;;;;;;;1.10;1.00;;;20.60;56.70;;;;;;4992206;28;20464;-74
2022/01/04 10:04:24;;;;;;;1.90;1.20;;;20.60;56.70;;;;;;4992312;28;20424;-74
2022/01/04 10:07:02;;;;;;;0.70;0.70;;;20.90;56.80;;;;;;4992395;28;20420;-74
2022/01/04 10:09:45;;;;;;;1.03;1.03;;;20.70;67.40;;;;;;4991887;28;20395;-74
2022/01/04 10:12:21;;;;;;;1.43;0.90;;;20.60;56.70;;;;;;4992143;28;20416;-74
2022/01/04 10:14:52;;;;;;;1.80;0.90;;;20.90;56.80;;;;;;4991768;28;20415;-74
2022/01/04 10:17:23;;;;;;;1.10;1.00;;;20.60;56.70;;;;;;4991846;28;20486;-74
2022/01/04 10:20:00;;;;;;;0.80;0.60;;;20.60;56.70;;;;;;4991535;28;20525;-74
2022/01/04 10:22:27;;;;;;;1.90;0.90;;;20.70;56.80;;;;;;4991787;28;20411;-74
2022/01/04 10:25:04;;;;;;;0.93;0.93;;;20.60;56.70;;;;;;4991452;28;20415;-74
2022/01/04 10:27:38;;;;;;;0.97;0.83;;;20.60;56.70;;;;;;4991539;28;20409;-74
2022/01/04 10:30:13;;;;;;;0.87;0.87;;;20.60;56.70;;;;;;4991265;28;20527;-74
2022/01/04 10:32:47;;;;;;;1.83;1.40;;;20.60;56.80;;;;;;4991420;28;20445;-74
2022/01/04 10:35:33;;;;;;;1.60;0.90;;;20.90;57.50;;;;;;4991513;28;20425;-74
2022/01/04 10:38:07;;;;;;;1.20;0.83;;;20.60;56.70;;;;;;4977493;28;20437;-74
2022/01/04 10:40:33;;;;;;;0.70;0.70;;;20.90;56.90;;;;;;4991263;28;20578;-74
2022/01/04 10:43:08;;;;;;;1.57;0.87;;;20.60;56.70;;;;;;4991193;28;20425;-74
2022/01/04 10:45:34;;;;;;;0.77;0.77;;;20.60;56.70;;;;;;4991332;28;20166;-74
2022/01/04 10:48:12;;;;;;;0.70;0.63;;;20.60;56.80;;;;;;4991391;28;20452;-74
2022/01/04 10:50:39;;;;;;;0.67;0.67;;;20.60;56.70;;;;;;4984833;28;20557;-74
2022/01/04 10:53:12;;;;;;;1.43;1.33;;;20.60;56.80;;;;;;4971724;28;20496;-75
2022/01/04 10:55:38;;;;;;;0.80;0.80;;;21.30;57.10;;;;;;4971564;28;20472;-74
2022/01/04 10:58:04;;;;;;;1.87;0.90;;;20.60;56.80;;;;;;4971665;28;20421;-74
2022/01/04 11:00:30;;;;;;;1.07;0.80;;;20.90;56.90;;;;;;4987170;28;20210;-75
2022/01/04 11:02:58;;;;;;;0.87;0.87;;;21.00;57.00;;;;;;4990690;28;20463;-75
2022/01/04 11:05:24;;;;;;;0.80;0.80;;;20.60;56.80;;;;;;4990921;28;20445;-75
2022/01/04 11:08:07;;;;;;;1.07;0.90;;;20.60;56.80;;;;;;4990762;28;20509;-75
2022/01/04 11:10:35;;;;;;;1.57;0.70;;;19.80;56.40;;;;;;4991026;28;20524;-75
2022/01/04 11:13:02;;;;;;;0.90;0.90;;;20.60;56.80;;;;;;4990908;28;20447;-75
2022/01/04 11:15:28;;;;;;;0.80;0.80;;;20.60;56.80;;;;;;4990743;28;20523;-75
2022/01/04 11:17:56;;;;;;;1.47;1.07;;;20.60;56.30;;;;;;4990809;28;20413;-74
2022/01/04 11:20:23;;;;;;;0.77;0.77;;;20.50;56.80;;;;;;4990551;28;20540;-75
2022/01/04 11:22:50;;;;;;;1.23;0.83;;;20.70;56.90;;;;;;4989442;28;20548;-75
2022/01/04 11:25:22;;;;;;;0.80;0.80;;;20.80;56.90;;;;;;4990624;28;20547;-75
2022/01/04 11:27:49;;;;;;;1.10;1.10;;;20.60;56.80;;;;;;4991168;28;20421;-75
2022/01/04 11:30:33;;;;;;;0.60;0.60;;;20.60;56.80;;;;;;4990589;28;20955;-75
2022/01/04 11:33:05;;;;;;;0.70;0.70;;;20.60;56.80;;;;;;4990429;28;20417;-74
2022/01/04 11:35:32;;;;;;;3.00;0.80;;;20.60;56.90;;;;;;4990491;28;20428;-75
2022/01/04 11:37:59;;;;;;;2.30;1.20;;;20.60;56.30;;;;;;4990037;28;20512;-74
2022/01/04 11:40:40;;;;;;;0.70;0.60;;;20.60;56.90;;;;;;4988737;28;20847;-75
2022/01/04 11:43:34;;;;;;;1.23;1.13;;;20.60;56.80;;;;;;4990695;28;20560;-74
2022/01/04 11:46:00;;;;;;;1.33;0.90;;;20.60;56.80;;;;;;4990618;28;20928;-74
2022/01/04 11:48:39;;;;;;;3.70;0.87;;;20.90;57.00;;;;;;4990410;28;20409;-75
2022/01/04 11:51:32;;;;;;;1.63;0.97;;;20.80;57.00;;;;;;4981576;28;20478;-75
2022/01/04 11:54:18;;;;;;;0.73;0.73;;;20.60;56.90;;;;;;4970687;28;21093;-75
2022/01/04 11:56:59;;;;;;;0.90;0.90;;;20.60;56.90;;;;;;4971082;28;20497;-74
2022/01/04 11:59:36;;;;;;;1.90;0.80;;;21.10;68.00;;;;;;4976037;28;20484;-75
2022/01/04 12:02:39;;;;;;;1.00;0.90;;;20.60;56.90;;;;;;4989592;28;20546;-76
2022/01/04 12:05:35;;;;;;;0.83;0.83;;;20.60;56.90;;;;;;4988623;28;20944;-74
2022/01/04 12:08:14;;;;;;;0.97;0.63;;;20.60;56.90;;;;;;4974080;28;20456;-74
2022/01/04 12:10:41;;;;;;;1.63;1.27;;;20.60;56.90;;;;;;4990222;28;20433;-74
2022/01/04 12:13:18;;;;;;;0.60;0.60;;;20.50;56.80;;;;;;4989827;28;20417;-73
2022/01/04 12:15:52;;;;;;;1.20;1.00;;;20.60;56.90;;;;;;4990021;28;20405;-73
2022/01/04 12:18:24;;;;;;;0.93;0.93;;;20.20;56.60;;;;;;4988365;28;20427;-74
2022/01/04 12:20:52;;;;;;;1.90;1.20;;;20.60;57.40;;;;;;4989777;28;20488;-74
2022/01/04 12:23:26;;;;;;;1.00;1.00;;;20.60;56.80;;;;;;4989715;28;20432;-73
2022/01/04 12:26:14;;;;;;;0.93;0.93;;;20.60;56.90;;;;;;4989815;28;20455;-74
2022/01/04 12:28:54;;;;;;;0.80;0.73;;;20.60;56.90;;;;;;4989874;28;20599;-74
2022/01/04 12:31:20;;;;;;;2.17;0.90;;;21.80;57.50;;;;;;4989527;28;20429;-74
2022/01/04 12:33:48;;;;;;;0.80;0.80;;;20.60;56.90;;;;;;4989918;28;20500;-73
2022/01/04 12:36:29;;;;;;;0.80;0.67;;;20.60;56.90;;;;;;4985836;28;20276;-74
2022/01/04 12:38:57;;;;;;;0.83;0.70;;;20.60;56.90;;;;;;4962728;28;20541;-73
2022/01/04 12:41:23;;;;;;;1.10;0.90;;;20.60;56.90;;;;;;4966319;28;20473;-73
2022/01/04 12:43:50;;;;;;;1.17;1.07;;;20.50;56.80;;;;;;4970166;28;20846;-73
2022/01/04 12:46:27;;;;;;;1.30;0.80;;;20.60;56.90;;;;;;4969549;28;20422;-75
2022/01/04 12:49:01;;;;;;;0.60;0.53;;;20.90;57.10;;;;;;4971202;28;20414;-74
2022/01/04 12:51:27;;;;;;;1.00;0.70;;;;;;;;;;4969281;28;20438;-74
2022/01/04 12:53:54;;;;;;;0.97;0.93;;;20.60;56.40;;;;;;4970710;28;20516;-74
2022/01/04 12:56:20;;;;;;;0.70;0.70;;;21.00;57.10;;;;;;4970841;28;20414;-74
2022/01/04 12:58:46;;;;;;;0.80;0.80;;;20.80;57.00;;;;;;4972277;28;20418;-76